Time;durP1;ratioP1;P1;durP2;ratioP2;P2;SDS_P1;SDS_P2;PMS_P1;PMS_P2;Temp;Humidity;BMP_temperature;BMP_pressure;BME280_temperature;BME280_humidity;BME280_pressure;Samples;Min_cycle;Max_cycle;Signal;HPM_P1;HPM_P2
2022/08/15 00:01:09;;;;;;;8.07;3.87;;;;;;;25.05;49.40;99638.51;1669061;85;21071;-59
2022/08/15 00:03:40;;;;;;;4.83;3.47;;;;;;;25.07;49.47;99642.20;1669370;85;21535;-60
2022/08/15 00:06:09;;;;;;;;;;;;;;;25.07;49.45;99634.20;1671955;85;22496;-55
2022/08/15 00:08:39;;;;;;;8.50;4.13;;;;;;;25.05;49.42;99635.05;1669308;85;20164;-55
2022/08/15 00:11:15;;;;;;;5.97;4.13;;;;;;;25.04;49.21;99633.45;1640662;87;21528;-55
2022/08/15 00:13:44;;;;;;;8.77;4.67;;;;;;;25.05;49.10;99643.06;1668257;85;21777;-62
2022/08/15 00:16:13;;;;;;;8.00;4.53;;;;;;;25.06;49.05;99633.96;1640671;86;21515;-55
2022/08/15 00:18:42;;;;;;;8.10;4.63;;;;;;;25.06;49.10;99643.30;1668948;85;20991;-65
2022/08/15 00:21:13;;;;;;;7.30;4.43;;;;;;;25.04;49.27;99640.94;1640919;86;21487;-56
2022/08/15 00:23:40;;;;;;;7.33;4.35;;;;;;;24.98;49.15;99652.22;1669047;85;21031;-56
2022/08/15 00:26:08;;;;;;;8.00;4.63;;;;;;;24.98;49.44;99642.88;1669634;85;21272;-56
2022/08/15 00:28:35;;;;;;;8.10;4.60;;;;;;;24.96;49.29;99641.07;1640840;87;21489;-54
2022/08/15 00:31:05;;;;;;;7.50;4.77;;;;;;;24.94;49.44;99642.44;1668520;85;20999;-56
2022/08/15 00:33:33;;;;;;;8.30;4.43;;;;;;;24.92;49.55;99642.72;1640298;86;21494;-62
2022/08/15 00:36:01;;;;;;;6.93;3.90;;;;;;;24.89;49.83;99657.98;1669235;85;21065;-55
2022/08/15 00:38:30;;;;;;;8.13;5.20;;;;;;;24.84;49.86;99655.39;1640762;86;21124;-55
2022/08/15 00:43:55;;;;;;;7.33;4.73;;;;;;;24.74;50.53;99655.58;1640964;86;21153;-59
2022/08/15 00:46:22;;;;;;;6.87;4.40;;;;;;;24.74;50.53;99655.58;1668960;85;21477;-57
2022/08/15 00:48:50;;;;;;;6.73;5.10;;;;;;;24.70;50.24;99659.36;1640498;86;20968;-55
2022/08/15 00:51:28;;;;;;;8.60;5.20;;;;;;;24.69;50.27;99663.09;1669104;85;21339;-59
2022/08/15 00:54:02;;;;;;;6.93;4.33;;;;;;;24.63;50.45;99662.15;1640823;87;21082;-55
2022/08/15 00:56:32;;;;;;;10.17;4.83;;;;;;;24.59;50.82;99666.48;1668990;85;21035;-57
2022/08/15 00:58:59;;;;;;;8.47;4.80;;;;;;;24.54;50.91;99655.88;1640758;86;21568;-58
2022/08/15 01:01:26;;;;;;;8.67;4.77;;;;;;;24.55;50.51;99655.61;1669197;85;21611;-55
2022/08/15 01:03:53;;;;;;;9.83;4.90;;;;;;;24.57;50.82;99660.63;1639580;86;21275;-56
2022/08/15 01:06:22;;;;;;;9.60;4.97;;;;;;;24.54;50.88;99657.20;1627025;88;20971;-55
2022/08/15 01:08:49;;;;;;;8.80;4.67;;;;;;;24.51;50.80;99651.94;1636888;87;21102;-55
2022/08/15 01:11:21;;;;;;;7.67;5.10;;;;;;;24.44;50.86;99650.97;1640867;87;21043;-55
2022/08/15 01:13:48;;;;;;;7.10;4.87;;;;;;;24.47;50.69;99654.39;1641410;87;21093;-55
2022/08/15 01:16:16;;;;;;;7.40;4.73;;;;;;;24.46;50.62;99654.66;1640849;87;22154;-56
2022/08/15 01:18:43;;;;;;;6.67;4.40;;;;;;;24.45;50.48;99651.20;1641096;87;21113;-55
2022/08/15 01:21:24;;;;;;;11.30;4.37;;;;;;;24.45;50.28;99659.20;1640789;87;21087;-64
2022/08/15 01:24:00;;;;;;;8.80;4.40;;;;;;;24.48;50.16;99663.17;1640106;87;21066;-56
2022/08/15 01:26:27;;;;;;;7.40;4.60;;;;;;;24.48;49.94;99659.96;1661256;86;21145;-55
2022/08/15 01:28:55;;;;;;;7.17;4.50;;;;;;;24.50;49.95;99665.77;1640806;86;21287;-56
2022/08/15 01:31:23;;;;;;;6.23;4.37;;;;;;;24.49;49.91;99666.87;1641232;87;21885;-55
2022/08/15 01:33:56;;;;;;;8.63;3.97;;;;;;;24.46;49.92;99670.10;1641436;87;21000;-55
2022/08/15 01:36:28;;;;;;;7.73;3.77;;;;;;;24.45;49.92;99666.41;1641135;86;21784;-55
2022/08/15 01:39:25;;;;;;;6.53;4.00;;;;;;;24.46;49.95;99666.11;1641231;87;21087;-64
2022/08/15 01:42:18;;;;;;;8.80;4.00;;;;;;;24.42;49.95;99665.10;1640643;87;21738;-55
2022/08/15 01:44:50;;;;;;;6.30;4.03;;;;;;;24.41;49.75;99666.73;1641299;87;21098;-55
2022/08/15 01:48:00;;;;;;;7.73;4.23;;;;;;;24.40;49.92;99670.48;1641046;87;21521;-55
2022/08/15 01:50:39;;;;;;;7.30;4.23;;;;;;;24.39;49.93;99668.88;1640914;87;21094;-57
2022/08/15 01:53:20;;;;;;;8.93;4.30;;;;;;;24.37;49.62;99670.48;1641243;87;21035;-55
2022/08/15 01:56:05;;;;;;;7.67;4.13;;;;;;;24.39;49.48;99673.67;1641305;86;21196;-56
2022/08/15 01:58:40;;;;;;;6.70;3.70;;;;;;;24.41;49.36;99676.06;1617304;87;21078;-56
2022/08/15 02:01:11;;;;;;;6.80;4.33;;;;;;;24.41;49.27;99679.52;1640993;87;20903;-64
2022/08/15 02:03:39;;;;;;;6.37;4.10;;;;;;;24.41;49.09;99669.40;1640819;87;21097;-57
2022/08/15 02:06:14;;;;;;;8.90;4.80;;;;;;;24.42;48.87;99673.64;1653117;85;21513;-56
2022/08/15 02:08:43;;;;;;;7.00;4.40;;;;;;;24.46;48.49;99667.98;1655515;85;21228;-56
2022/08/15 02:11:14;;;;;;;6.97;4.83;;;;;;;24.46;48.38;99659.45;1654885;86;21096;-64
2022/08/15 02:13:44;;;;;;;6.03;4.70;;;;;;;24.48;48.18;99663.17;1655600;86;21115;-57
2022/08/15 02:16:13;;;;;;;5.53;4.33;;;;;;;24.46;48.01;99662.11;1655754;86;21060;-56
2022/08/15 02:18:41;;;;;;;10.43;5.67;;;;;;;24.52;47.76;99665.50;1656088;86;20953;-56
2022/08/15 02:21:08;;;;;;;7.07;4.83;;;;;;;24.50;47.75;99667.11;1655055;85;21255;-59
2022/08/15 02:23:35;;;;;;;8.93;4.77;;;;;;;24.51;47.55;99664.72;1656204;86;21390;-57
2022/08/15 02:26:04;;;;;;;8.37;5.67;;;;;;;24.51;47.44;99659.94;1656206;86;21827;-56
2022/08/15 02:28:31;;;;;;;7.47;4.83;;;;;;;24.52;47.35;99661.51;1656246;86;21033;-56
2022/08/15 02:31:00;;;;;;;6.43;4.50;;;;;;;24.53;47.27;99664.96;1656154;86;21025;-65
2022/08/15 02:33:27;;;;;;;7.73;5.57;;;;;;;24.55;47.11;99668.11;1655028;86;21753;-57
2022/08/15 02:35:55;;;;;;;6.47;4.87;;;;;;;24.58;47.18;99671.53;1655709;86;21119;-56
2022/08/15 02:38:23;;;;;;;8.00;5.17;;;;;;;24.54;47.25;99667.33;1655662;86;21537;-56
2022/08/15 02:40:50;;;;;;;9.50;5.60;;;;;;;24.53;47.31;99674.28;1655548;86;21522;-55
2022/08/15 02:43:18;;;;;;;8.17;5.00;;;;;;;24.56;47.24;99669.17;1655093;85;22633;-59
2022/08/15 02:45:47;;;;;;;6.60;4.73;;;;;;;24.57;47.18;99668.63;1655470;86;21569;-56
2022/08/15 02:48:14;;;;;;;6.50;4.93;;;;;;;24.57;47.25;99666.75;1655480;85;21081;-57
2022/08/15 02:50:41;;;;;;;9.73;5.70;;;;;;;24.59;46.91;99673.14;1655242;86;21001;-65
2022/08/15 02:53:11;;;;;;;11.23;5.83;;;;;;;24.63;46.75;99671.48;1655057;86;21482;-65
2022/08/15 02:55:41;;;;;;;7.53;5.40;;;;;;;24.65;46.48;99668.75;1655212;86;22198;-56
2022/08/15 02:58:09;;;;;;;8.33;6.10;;;;;;;24.71;46.25;99675.59;1655810;86;21248;-56
2022/08/15 03:00:38;;;;;;;8.90;6.37;;;;;;;24.75;46.02;99678.47;1678364;83;21021;-57
2022/08/15 03:03:11;;;;;;;9.75;5.90;;;;;;;24.76;45.87;99678.71;1655309;86;21069;-58
2022/08/15 03:05:40;;;;;;;8.97;5.50;;;;;;;24.78;45.88;99677.11;1660513;86;21332;-57
2022/08/15 03:08:08;;;;;;;11.93;5.77;;;;;;;24.80;45.83;99682.38;1666464;85;21438;-60
2022/08/15 03:10:36;;;;;;;7.80;5.13;;;;;;;24.79;45.86;99674.14;1712637;83;21603;-63
2022/08/15 03:13:08;;;;;;;11.23;5.73;;;;;;;24.80;45.85;99675.71;1665820;86;21792;-66
2022/08/15 03:15:48;;;;;;;7.93;5.67;;;;;;;24.81;45.71;99674.63;1666396;85;22126;-56
2022/08/15 03:18:15;;;;;;;8.33;4.87;;;;;;;24.80;45.73;99678.38;1712873;83;21013;-60
2022/08/15 03:20:45;;;;;;;8.37;5.63;;;;;;;24.84;45.63;99682.59;1666008;85;21118;-65
2022/08/15 03:23:12;;;;;;;7.03;4.87;;;;;;;24.83;45.72;99679.68;1712517;83;21935;-56
2022/08/15 03:25:48;;;;;;;8.37;5.43;;;;;;;24.82;45.65;99680.77;1666556;86;21011;-56
2022/08/15 03:28:18;;;;;;;10.67;5.27;;;;;;;24.81;45.68;99676.50;1685778;83;21031;-56
2022/08/15 03:30:45;;;;;;;9.83;5.70;;;;;;;24.80;45.75;99685.59;1666240;86;21027;-60
2022/08/15 03:33:13;;;;;;;7.67;5.70;;;;;;;24.78;45.96;99684.56;1666076;86;21988;-56
2022/08/15 03:35:46;;;;;;;7.57;4.97;;;;;;;24.76;45.88;99682.71;1666302;86;21193;-65
2022/08/15 03:38:15;;;;;;;11.10;5.27;;;;;;;24.77;45.86;99689.62;1712553;83;21083;-56
2022/08/15 03:40:44;;;;;;;10.23;5.50;;;;;;;24.76;46.07;99684.05;1711844;83;21070;-57
2022/08/15 03:43:19;;;;;;;9.07;5.50;;;;;;;24.74;45.95;99692.34;1666475;86;22318;-56
2022/08/15 03:45:52;;;;;;;7.93;5.00;;;;;;;24.76;46.14;99688.05;1712060;83;20986;-64
2022/08/15 03:48:23;;;;;;;9.00;5.07;;;;;;;24.74;46.13;99686.23;1665618;85;21783;-59
2022/08/15 03:50:52;;;;;;;6.50;4.70;;;;;;;24.75;46.25;99681.14;1712616;83;21014;-56
2022/08/15 03:53:19;;;;;;;6.87;4.60;;;;;;;24.73;46.47;99684.08;1649108;86;21019;-56
2022/08/15 03:55:47;;;;;;;5.53;4.33;;;;;;;24.71;46.45;99681.47;1712160;83;21473;-56
2022/08/15 03:58:14;;;;;;;9.20;4.70;;;;;;;24.76;46.41;99678.17;1666235;86;21336;-57
2022/08/15 04:00:48;;;;;;;7.73;5.20;;;;;;;24.78;46.41;99676.56;1712010;83;21138;-61
2022/08/15 04:03:20;;;;;;;7.53;4.90;;;;;;;24.81;46.10;99683.95;1665940;86;21348;-60
2022/08/15 04:05:54;;;;;;;11.00;5.30;;;;;;;24.88;46.04;99683.59;1667527;85;21570;-56
2022/08/15 04:08:22;;;;;;;10.43;4.90;;;;;;;24.92;45.99;99674.70;1668893;85;21477;-63
2022/08/15 04:10:51;;;;;;;7.50;4.70;;;;;;;24.99;45.62;99685.00;1668355;84;20995;-65
2022/08/15 04:13:24;;;;;;;8.40;4.80;;;;;;;25.08;45.54;99682.45;1655847;85;22001;-56
2022/08/15 04:15:50;;;;;;;7.37;5.30;;;;;;;25.14;45.66;99678.65;1669442;85;21492;-55
2022/08/15 04:18:20;;;;;;;8.77;4.80;;;;;;;25.22;45.51;99675.30;1669805;85;21069;-55
2022/08/15 04:20:49;;;;;;;8.48;5.10;;;;;;;25.33;45.23;99679.91;1668909;85;21004;-56
2022/08/15 04:23:17;;;;;;;11.37;5.67;;;;;;;25.41;45.26;99670.67;1669856;85;21112;-56
2022/08/15 04:25:44;;;;;;;10.67;5.97;;;;;;;25.51;44.98;99679.59;1669558;85;22142;-57
2022/08/15 04:28:14;;;;;;;10.73;5.63;;;;;;;25.65;44.93;99671.05;1669237;85;20970;-65
2022/08/15 04:30:43;;;;;;;10.73;5.50;;;;;;;25.71;44.65;99675.96;1668834;85;22494;-57
2022/08/15 04:33:17;;;;;;;9.23;5.57;;;;;;;25.83;44.39;99670.70;1669507;85;21395;-56
2022/08/15 04:35:48;;;;;;;9.10;5.70;;;;;;;25.78;44.36;99678.27;1669351;85;21086;-58
2022/08/15 04:38:15;;;;;;;8.65;5.67;;;;;;;25.87;44.65;99681.81;1668910;85;21715;-57
2022/08/15 04:40:44;;;;;;;8.33;5.57;;;;;;;26.01;44.28;99678.34;1668711;85;21106;-56
2022/08/15 04:43:11;;;;;;;7.87;5.57;;;;;;;26.11;43.80;99676.25;1669197;85;20984;-57
2022/08/15 04:45:40;;;;;;;10.03;4.90;;;;;;;26.22;44.01;99678.16;1669363;85;21512;-56
2022/08/15 04:48:07;;;;;;;14.87;6.00;;;;;;;26.32;44.02;99670.45;1668998;85;21603;-56
2022/08/15 04:50:37;;;;;;;6.77;4.77;;;;;;;26.38;44.22;99678.59;1668933;85;21439;-56
2022/08/15 04:53:09;;;;;;;9.00;5.43;;;;;;;26.48;43.27;99679.75;1669550;85;20963;-56
2022/08/15 04:55:41;;;;;;;8.53;4.80;;;;;;;26.54;43.63;99673.72;1669910;85;21462;-57
2022/08/15 04:58:05;;;;;;;8.13;5.30;;;;;;;26.58;43.20;99672.80;1669145;85;20951;-64
2022/08/15 05:00:32;;;;;;;7.20;5.13;;;;;;;26.65;43.10;99672.38;1668876;85;21515;-58
2022/08/15 05:03:09;;;;;;;8.20;5.90;;;;;;;26.75;43.23;99672.70;1668599;85;21236;-56
2022/08/15 05:05:41;;;;;;;11.47;5.10;;;;;;;26.84;42.98;99670.30;1669242;85;21055;-56
2022/08/15 05:08:09;;;;;;;8.45;4.97;;;;;;;26.96;43.05;99668.95;1712690;83;21094;-65
2022/08/15 05:10:39;;;;;;;10.10;5.33;;;;;;;27.09;42.81;99668.09;1667230;86;21460;-56
2022/08/15 05:13:17;;;;;;;7.90;5.23;;;;;;;27.25;42.80;99671.19;1713318;83;21011;-56
2022/08/15 05:15:44;;;;;;;10.48;5.58;;;;;;;27.37;42.53;99668.16;1666530;86;21209;-58
2022/08/15 05:18:12;;;;;;;10.63;5.80;;;;;;;27.51;41.88;99668.62;1712057;83;21002;-59
2022/08/15 05:20:42;;;;;;;10.20;5.15;;;;;;;27.61;41.91;99666.97;1666783;86;21049;-56
2022/08/15 05:23:15;;;;;;;10.40;5.72;;;;;;;27.70;41.83;99667.80;1713209;83;21007;-56
2022/08/15 05:25:46;;;;;;;9.93;5.55;;;;;;;27.91;41.17;99672.59;1711629;83;21505;-62
2022/08/15 05:28:14;;;;;;;8.47;5.80;;;;;;;28.35;40.04;99660.25;1666212;85;21617;-57
2022/08/15 05:30:41;;;;;;;8.70;5.37;;;;;;;28.35;40.04;99660.25;1686826;83;21552;-56
2022/08/15 05:33:16;;;;;;;8.63;6.28;;;;;;;28.57;39.92;99662.56;1712836;83;21053;-57
2022/08/15 05:35:46;;;;;;;9.75;5.22;;;;;;;28.69;39.59;99653.88;1666454;86;21078;-64
2022/08/15 05:38:21;;;;;;;9.93;6.25;;;;;;;28.78;39.54;99664.80;1712777;83;21346;-56
2022/08/15 05:41:06;;;;;;;10.60;6.08;;;;;;;28.84;39.78;99660.85;1686692;83;21263;-56
2022/08/15 05:44:01;;;;;;;9.25;5.37;;;;;;;28.95;39.31;99651.13;1712006;83;21470;-62
2022/08/15 05:46:52;;;;;;;11.57;5.78;;;;;;;29.22;39.13;99650.74;1669656;83;21113;-55
2022/08/15 05:49:36;;;;;;;8.05;5.35;;;;;;;29.60;38.27;99658.02;1666311;85;21657;-56
2022/08/15 05:52:27;;;;;;;9.18;5.33;;;;;;;29.90;37.80;99649.94;1713027;83;21010;-55
2022/08/15 05:55:11;;;;;;;7.87;5.03;;;;;;;30.19;37.80;99647.22;1666229;86;21195;-56
2022/08/15 05:57:52;;;;;;;10.08;5.70;;;;;;;30.93;36.58;99646.12;1712891;83;20955;-55
2022/08/15 06:00:20;;;;;;;8.88;5.15;;;;;;;31.74;34.96;99644.45;1666354;86;21066;-56
2022/08/15 06:02:58;;;;;;;8.65;5.05;;;;;;;32.53;33.89;99642.11;1666249;86;21025;-56
2022/08/15 06:05:35;;;;;;;11.53;5.25;;;;;;;33.16;32.19;99637.36;1665988;85;21015;-56
2022/08/15 06:08:13;;;;;;;8.73;4.22;;;;;;;33.53;31.85;99646.55;1712349;83;21155;-56
2022/08/15 06:11:02;;;;;;;8.48;4.25;;;;;;;33.77;30.24;99642.81;1666379;86;20974;-56
2022/08/15 06:13:37;;;;;;;23.10;6.00;;;;;;;33.85;29.38;99634.48;1665747;85;21089;-56
2022/08/15 06:16:19;;;;;;;8.20;3.72;;;;;;;34.06;28.86;99636.11;1666517;86;21375;-57
2022/08/15 06:18:47;;;;;;;7.28;3.98;;;;;;;34.26;28.10;99645.00;1712528;83;21019;-64
2022/08/15 06:21:38;;;;;;;5.83;3.95;;;;;;;34.33;28.03;99639.16;1666327;86;22072;-65
2022/08/15 06:24:36;;;;;;;5.55;3.77;;;;;;;34.32;27.80;99638.14;1712771;83;21006;-57
2022/08/15 06:27:24;;;;;;;6.45;4.25;;;;;;;34.22;27.83;99642.80;1712280;83;22160;-55
2022/08/15 06:30:12;;;;;;;5.65;3.60;;;;;;;33.94;27.98;99641.61;1665910;86;20983;-57
2022/08/15 06:32:47;;;;;;;7.40;3.62;;;;;;;33.62;28.73;99647.91;1712962;83;22539;-56
2022/08/15 06:35:41;;;;;;;4.70;3.52;;;;;;;33.41;28.74;99644.69;1665999;84;21328;-58
2022/08/15 06:38:34;;;;;;;7.40;3.12;;;;;;;33.53;28.93;99646.55;1712722;83;21083;-57
2022/08/15 06:41:09;;;;;;;7.47;3.08;;;;;;;34.02;29.00;99635.23;1666312;85;21150;-57
2022/08/15 06:43:38;;;;;;;7.95;3.50;;;;;;;34.56;28.34;99618.14;1712538;83;21121;-57
2022/08/15 06:46:07;;;;;;;5.35;2.70;;;;;;;35.08;27.86;99632.94;1666763;86;27386;-57
2022/08/15 06:48:38;;;;;;;6.30;3.33;;;;;;;35.51;27.71;99636.33;1666451;86;21024;-57
2022/08/15 06:51:06;;;;;;;5.65;3.22;;;;;;;35.98;26.82;99630.38;1712331;83;21035;-63
2022/08/15 06:53:56;;;;;;;5.33;2.87;;;;;;;36.22;26.10;99633.18;1666413;86;21459;-57
2022/08/15 06:56:43;;;;;;;6.30;3.00;;;;;;;36.20;26.18;99637.41;1666017;85;22141;-56
2022/08/15 06:59:37;;;;;;;6.25;2.62;;;;;;;36.02;26.34;99629.05;1712926;83;20979;-56
2022/08/15 07:02:27;;;;;;;10.25;3.58;;;;;;;35.70;26.73;99637.55;1711615;83;21884;-56
2022/08/15 07:05:09;;;;;;;4.63;3.00;;;;;;;35.37;27.10;99628.73;1666244;85;20955;-56
2022/08/15 07:08:02;;;;;;;6.65;3.58;;;;;;;35.12;27.75;99630.28;1666329;85;21042;-57
2022/08/15 07:10:50;;;;;;;7.28;3.80;;;;;;;35.07;27.48;99621.90;1685845;83;21067;-59
2022/08/15 07:13:26;;;;;;;6.50;3.47;;;;;;;35.16;26.98;99612.16;1665781;85;21113;-56
2022/08/15 07:16:07;;;;;;;6.53;2.72;;;;;;;35.38;27.49;99626.23;1712629;83;21229;-64
2022/08/15 07:18:44;;;;;;;4.80;2.85;;;;;;;35.83;27.28;99626.67;1712232;83;21038;-64
2022/08/15 07:21:18;;;;;;;7.17;3.30;;;;;;;36.13;26.20;99621.83;1665284;85;21046;-56
2022/08/15 07:24:09;;;;;;;4.33;2.83;;;;;;;36.29;26.13;99622.95;1712222;83;21013;-56
2022/08/15 07:26:51;;;;;;;5.72;3.17;;;;;;;36.39;26.08;99626.37;1649478;86;21105;-57
2022/08/15 07:29:39;;;;;;;7.75;3.50;;;;;;;36.61;25.64;99626.61;1666430;86;21568;-57
2022/08/15 07:32:33;;;;;;;4.37;3.08;;;;;;;36.82;25.34;99617.86;1712491;83;22265;-57
2022/08/15 07:35:15;;;;;;;4.90;3.17;;;;;;;36.99;24.79;99610.46;1666402;85;21026;-64
2022/08/15 07:37:56;;;;;;;5.42;3.25;;;;;;;37.05;25.03;99616.31;1666355;86;21106;-56
2022/08/15 07:40:32;;;;;;;5.08;3.20;;;;;;;37.21;24.76;99614.89;1709493;83;21587;-57
2022/08/15 07:43:01;;;;;;;9.90;3.47;;;;;;;37.38;24.62;99613.42;1666425;86;21809;-56
2022/08/15 07:45:39;;;;;;;7.72;2.90;;;;;;;37.59;24.43;99616.11;1651420;83;20997;-56
2022/08/15 07:48:29;;;;;;;6.62;2.90;;;;;;;37.82;24.18;99612.52;1706515;83;21006;-57
2022/08/15 07:51:22;;;;;;;6.33;2.72;;;;;;;37.98;23.49;99619.01;1710786;83;21503;-56
2022/08/15 07:54:00;;;;;;;5.90;2.90;;;;;;;38.05;23.69;99618.26;1666326;85;21501;-56
2022/08/15 07:56:30;;;;;;;4.80;2.92;;;;;;;38.22;22.89;99613.42;1711000;83;21415;-56
2022/08/15 07:59:20;;;;;;;10.45;2.85;;;;;;;38.14;23.43;99607.19;1665837;86;21540;-59
2022/08/15 08:01:46;;;;;;;5.92;3.25;;;;;;;38.25;22.91;99607.80;1666137;85;21074;-57
2022/08/15 08:04:24;;;;;;;6.30;3.55;;;;;;;38.24;23.29;99617.14;1712683;83;21422;-57
2022/08/15 08:07:22;;;;;;;4.45;2.80;;;;;;;38.27;22.58;99608.98;1666118;85;21022;-56
2022/08/15 08:09:54;;;;;;;5.78;3.72;;;;;;;38.10;22.63;99614.56;1648975;86;21197;-56
2022/08/15 08:12:54;;;;;;;6.05;3.60;;;;;;;37.94;22.74;99587.70;1648670;86;20963;-57
2022/08/15 08:15:27;;;;;;;8.48;5.03;;;;;;;37.96;23.41;99603.63;1712265;83;22423;-56
2022/08/15 08:18:05;;;;;;;7.90;4.17;;;;;;;38.33;23.04;99595.75;1666091;84;20967;-58
2022/08/15 08:20:49;;;;;;;4.95;3.72;;;;;;;38.45;22.55;99609.83;1685960;83;21043;-57
2022/08/15 08:23:28;;;;;;;6.40;4.00;;;;;;;38.13;22.48;99592.61;1665771;86;21183;-58
2022/08/15 08:26:43;;;;;;;7.05;4.05;;;;;;;37.69;22.99;99585.44;1666289;86;21015;-63
2022/08/15 08:29:33;;;;;;;4.75;3.62;;;;;;;37.40;24.04;99595.39;1672353;85;20904;-56
2022/08/15 08:32:19;;;;;;;6.17;3.62;;;;;;;37.42;24.04;99595.81;1712241;83;20907;-64
2022/08/15 08:35:40;;;;;;;6.90;4.12;;;;;;;37.38;23.90;99603.91;1666369;86;21118;-56
2022/08/15 08:38:21;;;;;;;5.78;4.15;;;;;;;37.17;24.15;99616.03;1666556;86;21194;-56
2022/08/15 08:44:10;;;;;;;;;;;;;;;36.51;24.30;99601.69;1668467;86;21075;-61
2022/08/15 08:47:10;;;;;;;8.28;4.75;;;;;;;36.51;24.98;99604.41;1659217;86;20150;-56
2022/08/15 08:49:53;;;;;;;;;;;;;;;36.68;23.78;99587.30;1715024;83;21423;-63
2022/08/15 08:52:45;;;;;;;6.37;4.80;;;;;;;36.83;22.32;99588.98;1682889;83;22467;-57
2022/08/15 08:55:32;;;;;;;6.40;4.30;;;;;;;36.66;22.70;99605.31;1658352;83;20998;-64
2022/08/15 08:58:09;;;;;;;5.78;4.60;;;;;;;36.45;22.75;99589.59;1666681;86;21060;-56
2022/08/15 09:00:46;;;;;;;8.80;4.47;;;;;;;36.42;23.45;99579.48;1666578;86;21598;-56
2022/08/15 09:03:27;;;;;;;7.33;3.65;;;;;;;36.68;23.25;99562.86;1666096;86;21046;-56
2022/08/15 09:05:54;;;;;;;5.45;3.40;;;;;;;36.89;22.98;99568.44;1712462;83;21542;-60
2022/08/15 09:08:46;;;;;;;7.33;3.20;;;;;;;37.23;22.51;99564.22;1712265;83;21419;-57
2022/08/15 09:11:30;;;;;;;5.45;3.60;;;;;;;37.40;22.53;99558.11;1666508;86;21026;-57
2022/08/15 09:14:02;;;;;;;8.98;3.90;;;;;;;37.47;22.44;99563.61;1712274;83;21435;-64
2022/08/15 09:16:33;;;;;;;9.95;4.72;;;;;;;37.57;22.60;99569.47;1666362;85;21482;-56
2022/08/15 09:19:23;;;;;;;7.17;4.08;;;;;;;37.39;22.03;99559.28;1666248;86;21862;-56
2022/08/15 09:21:50;;;;;;;7.17;3.17;;;;;;;37.34;22.36;99562.34;1665848;85;21031;-58
2022/08/15 09:24:19;;;;;;;5.20;2.90;;;;;;;37.55;22.17;99560.93;1666618;86;22117;-56
2022/08/15 09:27:17;;;;;;;6.35;3.83;;;;;;;37.75;22.22;99549.92;1666337;86;21295;-56
2022/08/15 09:29:49;;;;;;;7.03;3.10;;;;;;;38.02;21.74;99548.27;1666485;86;21458;-56
2022/08/15 09:32:27;;;;;;;5.20;3.08;;;;;;;38.23;21.67;99537.42;1712785;83;21512;-56
2022/08/15 09:35:39;;;;;;;6.03;3.65;;;;;;;38.36;21.66;99531.81;1711982;83;20982;-60
2022/08/15 09:38:23;;;;;;;7.50;3.27;;;;;;;38.37;21.24;99546.97;1711946;83;20987;-57
2022/08/15 09:41:17;;;;;;;5.85;3.27;;;;;;;38.12;21.17;99540.72;1713101;83;20924;-56
2022/08/15 09:44:12;;;;;;;8.03;4.00;;;;;;;37.84;21.89;99545.47;1665797;86;22089;-60
2022/08/15 09:47:09;;;;;;;8.15;3.92;;;;;;;37.66;21.75;99554.37;1666595;86;22115;-56
2022/08/15 09:50:03;;;;;;;8.35;4.03;;;;;;;37.46;21.79;99549.80;1712517;83;21116;-56
2022/08/15 09:52:53;;;;;;;6.92;4.45;;;;;;;37.28;22.34;99552.20;1665695;85;22074;-57
2022/08/15 09:55:44;;;;;;;7.30;5.12;;;;;;;37.26;22.17;99558.03;1711623;83;21564;-56
2022/08/15 09:58:20;;;;;;;9.35;7.15;;;;;;;37.22;22.23;99543.65;1712300;83;21098;-56
2022/08/15 10:01:03;;;;;;;5.72;4.25;;;;;;;37.13;21.90;99561.66;1709547;83;21155;-56
2022/08/15 10:03:56;;;;;;;6.62;4.50;;;;;;;37.13;22.14;99558.16;1712039;83;21003;-57
2022/08/15 10:06:34;;;;;;;8.43;4.17;;;;;;;37.25;21.85;99553.17;1666563;86;21543;-56
2022/08/15 10:09:16;;;;;;;6.95;4.10;;;;;;;37.33;22.43;99544.48;1706344;83;21155;-56
2022/08/15 10:11:57;;;;;;;6.72;4.33;;;;;;;37.56;21.76;99560.53;1709519;83;21058;-55
2022/08/15 10:14:31;;;;;;;7.40;4.85;;;;;;;37.53;21.91;99558.58;1712116;83;21077;-64
2022/08/15 10:17:04;;;;;;;5.72;4.50;;;;;;;37.33;21.67;99549.14;1707603;83;21105;-56
2022/08/15 10:19:35;;;;;;;5.50;4.03;;;;;;;37.13;22.30;99550.78;1711919;83;20991;-56
2022/08/15 10:22:25;;;;;;;7.87;4.00;;;;;;;37.27;21.98;99537.84;1711498;83;20972;-56
2022/08/15 10:25:24;;;;;;;5.55;3.75;;;;;;;37.58;22.00;99547.34;1713719;83;20904;-55
2022/08/15 10:28:14;;;;;;;5.55;3.92;;;;;;;38.05;21.50;99541.48;1665907;86;22439;-55
2022/08/15 10:30:48;;;;;;;6.67;3.47;;;;;;;38.41;21.02;99534.14;1709427;83;20999;-57
2022/08/15 10:33:36;;;;;;;5.40;3.83;;;;;;;38.67;21.10;99522.66;1695035;83;21380;-57
2022/08/15 10:36:17;;;;;;;6.95;3.98;;;;;;;38.92;21.16;99528.87;1666390;86;21027;-56
2022/08/15 10:38:52;;;;;;;7.80;4.12;;;;;;;39.15;20.76;99523.56;1666037;85;21077;-57
2022/08/15 10:41:48;;;;;;;7.42;3.77;;;;;;;39.02;20.50;99538.77;1712734;83;21217;-56
2022/08/15 10:44:33;;;;;;;6.95;4.03;;;;;;;38.59;21.02;99530.05;1712433;83;21116;-57
2022/08/15 10:47:23;;;;;;;5.97;4.33;;;;;;;38.19;21.38;99528.48;1666988;86;20991;-56
2022/08/15 10:50:20;;;;;;;5.95;3.95;;;;;;;37.87;21.24;99515.55;1664453;85;21436;-55
2022/08/15 10:53:20;;;;;;;10.58;4.60;;;;;;;37.44;21.51;99537.19;1712783;83;21559;-62
2022/08/15 10:55:47;;;;;;;7.30;3.95;;;;;;;37.04;21.13;99529.17;1666808;85;21244;-56
2022/08/15 10:58:32;;;;;;;5.72;3.05;;;;;;;36.89;21.11;99529.63;1666989;86;20991;-57
2022/08/15 11:01:20;;;;;;;6.53;4.12;;;;;;;36.77;21.14;99511.70;1712510;83;22066;-56
2022/08/15 11:04:03;;;;;;;6.42;3.87;;;;;;;36.62;21.50;99530.41;1711121;83;21007;-65
2022/08/15 11:06:30;;;;;;;6.50;3.60;;;;;;;36.50;21.71;99528.77;1713597;83;21003;-55
2022/08/15 11:09:08;;;;;;;5.22;4.05;;;;;;;36.49;21.74;99525.87;1715197;83;21265;-56
2022/08/15 11:11:42;;;;;;;7.35;3.87;;;;;;;36.54;21.75;99530.36;1714564;83;20990;-64
2022/08/15 11:14:26;;;;;;;5.90;3.98;;;;;;;36.49;21.73;99518.50;1716134;83;21499;-56
2022/08/15 11:16:54;;;;;;;10.78;4.15;;;;;;;36.32;21.97;99534.59;1669964;85;21058;-56
2022/08/15 11:19:32;;;;;;;7.00;3.70;;;;;;;36.11;21.64;99528.41;1669552;85;20876;-64
2022/08/15 11:22:02;;;;;;;8.70;4.62;;;;;;;35.95;21.83;99514.47;1669628;85;21447;-56
2022/08/15 11:24:37;;;;;;;13.05;4.58;;;;;;;35.87;21.97;99520.95;1669715;85;21023;-56
2022/08/15 11:27:17;;;;;;;5.95;3.83;;;;;;;36.02;22.26;99524.03;1669068;85;21070;-58
2022/08/15 11:29:46;;;;;;;5.05;4.05;;;;;;;36.42;21.92;99507.55;1669298;85;21326;-56
2022/08/15 11:32:35;;;;;;;6.87;3.80;;;;;;;36.82;21.46;99508.63;1669318;85;21097;-55
2022/08/15 11:35:24;;;;;;;8.80;4.45;;;;;;;36.87;20.87;99503.45;1668372;85;21392;-57
2022/08/15 11:37:54;;;;;;;5.67;4.03;;;;;;;36.61;21.26;99488.91;1668939;84;20976;-56
2022/08/15 11:40:37;;;;;;;6.47;4.25;;;;;;;36.32;21.58;99504.16;1641746;85;20955;-61
2022/08/15 11:43:05;;;;;;;6.28;5.00;;;;;;;36.08;21.54;99495.23;1669089;85;21409;-56
2022/08/15 11:45:41;;;;;;;9.88;4.40;;;;;;;35.87;21.75;99508.74;1669395;85;20963;-56
2022/08/15 11:48:13;;;;;;;7.08;4.90;;;;;;;35.73;22.26;99503.19;1668268;85;23075;-59
2022/08/15 11:50:42;;;;;;;7.87;5.92;;;;;;;35.60;22.09;99528.39;1669138;85;21072;-55
2022/08/15 11:53:10;;;;;;;7.25;4.67;;;;;;;35.52;21.53;99503.71;1669078;85;21510;-57
2022/08/15 11:55:44;;;;;;;6.95;5.25;;;;;;;35.47;21.58;99506.73;1668702;85;20959;-66
2022/08/15 11:58:17;;;;;;;7.30;5.45;;;;;;;35.43;21.77;99503.97;1668737;85;21021;-56
2022/08/15 12:00:53;;;;;;;7.12;4.70;;;;;;;35.41;21.83;99503.55;1669328;85;21241;-56
2022/08/15 12:03:35;;;;;;;9.80;4.62;;;;;;;35.41;21.83;99515.73;1667993;85;20948;-65
2022/08/15 12:06:30;;;;;;;8.18;4.75;;;;;;;35.45;21.97;99489.46;1668797;85;21019;-56
2022/08/15 12:09:14;;;;;;;9.25;4.75;;;;;;;35.49;21.89;99497.63;1667024;85;22183;-56
2022/08/15 12:11:47;;;;;;;7.85;5.20;;;;;;;35.61;22.15;99488.50;1713072;83;21452;-57
2022/08/15 12:14:24;;;;;;;6.67;4.58;;;;;;;35.81;22.08;99489.91;1665814;85;21238;-64
2022/08/15 12:16:56;;;;;;;6.00;4.58;;;;;;;36.09;22.08;99477.22;1666217;85;20996;-55
2022/08/15 12:19:50;;;;;;;6.35;4.47;;;;;;;36.40;22.25;99471.07;1666178;85;20935;-56
2022/08/15 12:22:40;;;;;;;8.40;4.20;;;;;;;36.55;21.27;99476.84;1666194;86;21133;-56
2022/08/15 12:25:08;;;;;;;6.20;4.65;;;;;;;36.48;21.40;99474.87;1666771;86;21860;-56